KR-0365 weather

Halla Vivaldi Apartments Heliports
Busan, Busan Gwang'yeogsi, South Korea

Public forecast

Using degrees Celsius for public forecast. Weather courtesy of forecast.io.

METAR (pilot weather report)

Closest report is Gimhae International Airport, 6.6 nm (12.1 km) WNW. Retrieved 2019/09/21 05:00 UTC (54 minutes ago):

RKPK 210500Z 06013KT 6000 -RA BKN020 BKN030 OVC080 21/15 Q1015

TAF (pilot weather forecast)

Forecast is more than 12 hours old.

Closest forecast is Gimhae International Airport, 6.6 nm (12.1 km) WNW. Retrieved 2019/09/20 00:00 UTC (1 day ago):

TAF RKPK 202300Z 2100/2206 06010KT 4800 -RA BR BKN020 OVC040 TX23/2106Z TN18/2121Z BECMG 2103/2104 06012KT 3200 RA BR BKN015 OVC030 BECMG 2112/2113 06010G20KT BECMG 2117/2118 06020G30KT 1600 BKN010 OVC020